createdAt,value
2023-04-07T09:35:03.948Z,22.20
2023-04-07T09:36:07.916Z,23.30
2023-04-07T09:37:22.624Z,23.40
2023-04-07T09:38:34.107Z,20.70
2023-04-07T09:39:51.559Z,20.20
2023-04-07T09:41:09.939Z,22.70
2023-04-07T09:42:12.750Z,25.40
2023-04-07T09:43:18.605Z,24.10
2023-04-07T09:44:22.634Z,22.50
2023-04-07T09:46:35.933Z,23.10
2023-04-07T09:47:39.450Z,20.30
2023-04-07T09:48:43.902Z,23.00
2023-04-07T09:49:54.260Z,19.80
2023-04-07T09:51:07.157Z,24.10
2023-04-07T09:52:11.281Z,21.00
2023-04-07T09:53:14.104Z,20.00
2023-04-07T09:54:33.002Z,21.30
2023-04-07T09:55:36.912Z,20.80
2023-04-07T09:56:39.942Z,19.60
2023-04-07T09:57:44.332Z,21.40
2023-04-07T09:58:48.693Z,22.20
2023-04-07T09:59:54.229Z,20.50
2023-04-07T10:00:57.944Z,20.60
2023-04-07T10:02:01.352Z,19.60
2023-04-07T10:03:04.717Z,16.60
2023-04-07T10:04:08.754Z,19.60
2023-04-07T10:05:11.954Z,19.40
2023-04-07T10:06:14.760Z,18.50
2023-04-07T10:07:17.708Z,17.70
2023-04-07T10:08:21.373Z,16.20
2023-04-07T10:09:27.598Z,18.20
2023-04-07T10:10:31.924Z,17.10
2023-04-07T10:11:37.508Z,17.70
2023-04-07T10:12:42.318Z,18.60
2023-04-07T10:13:46.081Z,18.40
2023-04-07T10:14:50.416Z,17.30
2023-04-07T10:15:53.396Z,18.00
2023-04-07T10:16:57.508Z,16.10
2023-04-07T10:18:00.865Z,14.60
2023-04-07T10:19:05.468Z,15.30
2023-04-07T10:20:11.105Z,19.90
2023-04-07T10:21:16.698Z,17.50
2023-04-07T10:22:20.589Z,17.20
2023-04-07T10:23:29.096Z,17.80
2023-04-07T10:24:44.988Z,15.70
2023-04-07T10:25:52.685Z,19.50
2023-04-07T10:26:59.676Z,17.40
2023-04-07T10:28:09.686Z,19.60
2023-04-07T10:29:15.419Z,18.90
2023-04-07T10:30:24.181Z,20.70
2023-04-07T10:31:27.600Z,21.80
2023-04-07T10:32:30.827Z,19.00
2023-04-07T10:33:47.062Z,19.40
2023-04-07T10:34:50.279Z,18.00
2023-04-07T10:36:08.670Z,16.70
2023-04-07T10:37:17.942Z,17.80
2023-04-07T10:38:21.338Z,18.90
2023-04-07T10:39:24.305Z,19.20
2023-04-07T10:40:28.480Z,17.00
2023-04-07T10:41:52.015Z,19.40
2023-04-07T10:42:56.455Z,19.10
2023-04-07T10:43:59.222Z,20.20
2023-04-07T10:45:03.538Z,18.80
2023-04-07T10:46:06.359Z,16.80
2023-04-07T10:47:09.678Z,15.40
2023-04-07T10:48:14.893Z,17.70
2023-04-07T10:49:19.047Z,18.50
2023-04-07T10:50:23.765Z,16.20
2023-04-07T10:51:27.214Z,18.10
2023-04-07T10:52:30.015Z,15.50
2023-04-07T10:53:37.051Z,15.40
2023-04-07T10:54:40.823Z,18.80
2023-04-07T10:55:47.225Z,14.40
2023-04-07T10:57:11.077Z,14.70
2023-04-07T10:58:24.800Z,13.60
2023-04-07T10:59:28.209Z,13.20
2023-04-07T11:00:30.973Z,14.40
2023-04-07T11:01:34.797Z,15.20
2023-04-07T11:02:41.547Z,16.40
2023-04-07T11:03:56.824Z,15.00
2023-04-07T11:04:59.903Z,15.90
2023-04-07T11:06:11.307Z,14.90
2023-04-07T11:07:16.342Z,14.60
2023-04-07T11:08:38.929Z,16.20
2023-04-07T11:09:42.688Z,17.20
2023-04-07T11:10:48.140Z,16.40
2023-04-07T11:11:52.264Z,19.70
2023-04-07T11:13:03.631Z,17.80
2023-04-07T11:14:06.747Z,16.10
2023-04-07T11:15:22.915Z,16.10
2023-04-07T11:16:36.688Z,14.00
2023-04-07T11:17:39.697Z,14.60
2023-04-07T11:18:43.715Z,18.10
2023-04-07T11:19:53.859Z,16.50
2023-04-07T11:20:59.166Z,15.70
2023-04-07T11:22:28.581Z,15.90
2023-04-07T11:24:48.578Z,14.00
2023-04-07T11:25:54.062Z,16.20
2023-04-07T11:26:57.155Z,14.30
2023-04-07T11:28:00.612Z,14.20
2023-04-07T11:29:03.647Z,13.60
2023-04-07T11:30:10.088Z,13.80
2023-04-07T11:31:21.221Z,12.80
2023-04-07T11:32:26.157Z,14.30
2023-04-07T11:33:31.736Z,14.80
2023-04-07T11:34:36.640Z,14.80
2023-04-07T11:35:39.553Z,11.80
2023-04-07T11:36:42.585Z,14.00
2023-04-07T11:37:46.113Z,13.50
2023-04-07T11:38:49.086Z,12.60
2023-04-07T11:39:56.297Z,13.90
2023-04-07T11:41:14.186Z,14.60
2023-04-07T11:42:17.041Z,15.70
2023-04-07T11:43:23.176Z,13.00
2023-04-07T11:44:26.812Z,14.40
2023-04-07T11:45:29.869Z,14.90
2023-04-07T11:46:33.070Z,14.60
2023-04-07T11:47:39.166Z,14.30
2023-04-07T11:48:44.407Z,13.70
2023-04-07T11:49:48.946Z,14.10
2023-04-07T11:50:52.219Z,13.60
2023-04-07T11:52:07.256Z,12.60
2023-04-07T11:53:10.608Z,14.80
2023-04-07T11:54:13.832Z,12.90
2023-04-07T11:55:24.721Z,14.00
2023-04-07T11:56:28.189Z,14.70
2023-04-07T11:57:31.062Z,14.60
2023-04-07T11:58:34.068Z,15.40
2023-04-07T11:59:37.181Z,16.80
2023-04-07T12:00:54.604Z,16.00
2023-04-07T12:01:58.120Z,16.70
2023-04-07T12:03:11.399Z,16.30
2023-04-07T12:04:16.217Z,17.10
2023-04-07T12:05:19.689Z,15.30
2023-04-07T12:06:38.701Z,14.40
2023-04-07T12:07:54.261Z,16.30
2023-04-07T12:08:57.094Z,14.80
2023-04-07T12:10:18.922Z,15.00
2023-04-07T12:11:21.775Z,14.10
2023-04-07T12:12:29.209Z,15.60
2023-04-07T12:13:32.121Z,15.40
2023-04-07T12:14:36.082Z,16.00
2023-04-07T12:15:38.848Z,15.50
2023-04-07T12:16:42.984Z,13.60
2023-04-07T12:17:47.930Z,16.80
2023-04-07T12:18:54.583Z,16.60
2023-04-07T12:19:57.406Z,15.20
2023-04-07T12:21:00.499Z,14.30
2023-04-07T12:22:04.002Z,17.30
2023-04-07T12:23:06.983Z,15.60
2023-04-07T12:24:09.956Z,15.20
2023-04-07T12:25:12.871Z,15.10
2023-04-07T12:26:16.156Z,15.60
2023-04-07T12:27:20.132Z,15.50
2023-04-07T12:28:24.325Z,13.90
2023-04-07T12:29:27.113Z,14.50
2023-04-07T12:30:30.050Z,14.40
2023-04-07T12:31:33.474Z,16.10
2023-04-07T12:32:38.041Z,15.60
2023-04-07T12:33:41.127Z,16.90
2023-04-07T12:34:44.622Z,18.50
2023-04-07T12:35:47.733Z,15.50
2023-04-07T12:36:50.720Z,15.00
2023-04-07T12:37:54.143Z,14.70
2023-04-07T12:38:57.569Z,15.70
2023-04-07T12:40:00.707Z,14.30
2023-04-07T12:41:03.771Z,14.70
2023-04-07T12:42:07.677Z,13.60
2023-04-07T12:43:10.762Z,15.50
2023-04-07T12:44:13.688Z,15.20
2023-04-07T12:45:16.526Z,14.00
2023-04-07T12:46:20.169Z,14.80
2023-04-07T12:47:23.116Z,15.20
2023-04-07T12:48:27.815Z,14.90
2023-04-07T12:49:30.646Z,12.60
2023-04-07T12:50:36.281Z,13.60
2023-04-07T12:51:40.277Z,15.20
2023-04-07T12:52:43.256Z,13.90
2023-04-07T12:53:47.955Z,15.30
2023-04-07T12:54:51.266Z,15.20
2023-04-07T12:55:54.299Z,13.80
2023-04-07T12:56:57.176Z,14.00
2023-04-07T12:58:00.454Z,13.70
2023-04-07T12:59:04.035Z,14.30
2023-04-07T13:00:08.400Z,15.30
2023-04-07T13:01:11.918Z,14.70
2023-04-07T13:02:15.415Z,14.40
2023-04-07T13:03:18.621Z,14.10
2023-04-07T13:04:22.221Z,13.10
2023-04-07T13:05:25.149Z,13.90
2023-04-07T13:06:27.979Z,13.10
2023-04-07T13:07:30.981Z,13.10
2023-04-07T13:08:33.772Z,14.10
2023-04-07T13:09:36.981Z,14.30
2023-04-07T13:10:39.826Z,13.30
2023-04-07T13:11:42.652Z,13.70
2023-04-07T13:12:45.763Z,12.30
2023-04-07T13:13:48.807Z,13.80
2023-04-07T13:14:59.578Z,13.60
2023-04-07T13:16:02.953Z,15.20
2023-04-07T13:17:06.946Z,14.40
2023-04-07T13:18:10.076Z,14.30
2023-04-07T13:19:13.192Z,19.90
2023-04-07T13:20:19.879Z,43.50
2023-04-07T13:22:30.816Z,36.80
2023-04-07T13:23:42.698Z,16.30
2023-04-07T13:24:46.785Z,15.40
2023-04-07T13:25:49.742Z,15.20
2023-04-07T13:26:53.068Z,15.70
2023-04-07T13:27:55.996Z,13.70
2023-04-07T13:28:58.882Z,15.40
2023-04-07T13:30:01.943Z,15.10
2023-04-07T13:31:05.123Z,15.30
2023-04-07T13:32:09.256Z,14.20
2023-04-07T13:33:12.389Z,16.30
2023-04-07T13:34:15.802Z,13.50
2023-04-07T13:35:18.820Z,14.80
2023-04-07T13:36:23.423Z,13.70
2023-04-07T13:37:26.611Z,13.40
2023-04-07T13:38:29.403Z,14.10
2023-04-07T13:39:33.141Z,15.70
2023-04-07T13:40:36.058Z,16.00
2023-04-07T13:41:38.889Z,15.70
2023-04-07T13:42:43.079Z,14.70
2023-04-07T13:43:46.002Z,13.70
2023-04-07T13:44:50.699Z,14.70
2023-04-07T13:45:53.619Z,16.00
2023-04-07T13:46:57.750Z,16.20
2023-04-07T13:48:00.996Z,15.80
2023-04-07T13:49:03.919Z,15.70
2023-04-07T13:50:07.533Z,16.30
2023-04-07T13:51:11.337Z,16.20
2023-04-07T13:52:14.735Z,15.20
2023-04-07T13:53:19.303Z,14.90
2023-04-07T13:54:22.659Z,17.00
2023-04-07T13:55:25.644Z,17.40
2023-04-07T13:56:28.509Z,19.50
2023-04-07T13:57:32.086Z,18.10
2023-04-07T13:58:35.465Z,17.30
2023-04-07T13:59:38.306Z,17.10
2023-04-07T14:00:41.748Z,16.80
2023-04-07T14:01:44.641Z,18.30
2023-04-07T14:02:49.627Z,18.30
2023-04-07T14:03:52.934Z,14.80
2023-04-07T14:04:56.982Z,19.20
2023-04-07T14:06:01.288Z,14.80
2023-04-07T14:07:04.262Z,21.70
2023-04-07T14:08:07.193Z,49.80
2023-04-07T14:09:10.183Z,40.60
2023-04-07T14:10:13.265Z,44.30
2023-04-07T14:11:19.773Z,39.80
2023-04-07T14:12:23.586Z,20.00
2023-04-07T14:13:26.467Z,21.20
2023-04-07T14:14:29.673Z,28.80
2023-04-07T14:15:34.058Z,17.00
2023-04-07T14:16:37.737Z,39.20
2023-04-07T14:17:40.596Z,54.10
2023-04-07T14:18:44.254Z,31.70
2023-04-07T14:19:47.828Z,24.60
2023-04-07T14:20:50.711Z,17.70
2023-04-07T14:21:53.810Z,31.10
2023-04-07T14:22:56.828Z,19.60
2023-04-07T14:24:00.213Z,19.60
2023-04-07T14:25:04.060Z,19.90
2023-04-07T14:26:10.004Z,15.60
2023-04-07T14:27:14.226Z,15.20
2023-04-07T14:28:17.080Z,17.30
2023-04-07T14:29:20.452Z,14.30
2023-04-07T14:30:23.452Z,13.50
2023-04-07T14:31:26.239Z,15.80
2023-04-07T14:32:33.411Z,16.80
2023-04-07T14:33:36.590Z,13.90
2023-04-07T14:34:39.437Z,14.90
2023-04-07T14:35:42.274Z,17.90
2023-04-07T14:36:56.141Z,14.70
2023-04-07T14:37:59.132Z,14.40
2023-04-07T14:39:02.072Z,17.20
2023-04-07T14:40:06.569Z,15.70
2023-04-07T14:41:10.747Z,14.70
2023-04-07T14:42:13.949Z,14.80
2023-04-07T14:43:16.792Z,14.10
2023-04-07T14:44:19.640Z,13.10
2023-04-07T14:45:22.911Z,14.60
2023-04-07T14:46:29.132Z,15.50
2023-04-07T14:47:32.220Z,13.60
2023-04-07T14:48:35.069Z,14.60
2023-04-07T14:49:37.981Z,12.80
2023-04-07T14:50:41.427Z,16.30
2023-04-07T14:51:45.391Z,14.90
2023-04-07T14:52:48.181Z,13.20
2023-04-07T14:53:55.901Z,16.10
2023-04-07T14:55:00.443Z,13.30
2023-04-07T14:56:07.166Z,14.10
2023-04-07T14:57:11.563Z,12.90
2023-04-07T14:58:14.704Z,15.30
2023-04-07T14:59:17.567Z,14.10
2023-04-07T15:00:20.481Z,14.20
2023-04-07T15:01:23.681Z,15.40
2023-04-07T15:02:29.336Z,15.70
2023-04-07T15:03:33.485Z,15.60
2023-04-07T15:04:36.605Z,16.60
2023-04-07T15:05:39.441Z,14.10
2023-04-07T15:06:43.332Z,16.50
2023-04-07T15:07:49.954Z,16.80
2023-04-07T15:08:52.926Z,17.30
2023-04-07T15:09:56.850Z,15.80
2023-04-07T15:10:59.888Z,13.80
2023-04-07T15:12:02.789Z,15.10
2023-04-07T15:13:05.812Z,14.40
2023-04-07T15:14:08.680Z,14.40
2023-04-07T15:15:11.464Z,16.60
2023-04-07T15:16:15.703Z,12.80
2023-04-07T15:17:18.833Z,15.70
2023-04-07T15:18:22.030Z,13.80
2023-04-07T15:19:25.050Z,14.80
2023-04-07T15:20:27.825Z,14.30
2023-04-07T15:21:30.994Z,13.80
2023-04-07T15:22:34.125Z,14.00
2023-04-07T15:23:38.160Z,13.40
2023-04-07T15:24:42.695Z,14.20
2023-04-07T15:25:47.409Z,16.40
2023-04-07T15:26:50.370Z,13.60
2023-04-07T15:27:53.320Z,12.70
2023-04-07T15:28:56.254Z,12.90
2023-04-07T15:29:59.280Z,10.80
2023-04-07T15:31:02.357Z,12.70
2023-04-07T15:32:05.776Z,13.10
2023-04-07T15:33:08.688Z,12.70
2023-04-07T15:34:12.847Z,11.80
2023-04-07T15:35:15.975Z,11.30
2023-04-07T15:36:18.795Z,12.90
2023-04-07T15:37:21.530Z,11.40
2023-04-07T15:38:24.495Z,11.40
2023-04-07T15:39:27.418Z,9.90
2023-04-07T15:40:30.452Z,11.00
2023-04-07T15:41:34.094Z,13.90
2023-04-07T15:42:41.798Z,11.50
2023-04-07T15:43:45.120Z,10.60
2023-04-07T15:44:48.305Z,12.10
2023-04-07T15:45:51.372Z,11.60
2023-04-07T15:46:54.471Z,10.70
2023-04-07T15:47:57.679Z,12.00
2023-04-07T15:49:00.732Z,9.90
2023-04-07T15:50:03.934Z,9.70
2023-04-07T15:51:06.831Z,12.30
2023-04-07T15:52:12.018Z,10.50
2023-04-07T15:53:14.803Z,9.40
2023-04-07T15:54:17.833Z,11.10
2023-04-07T15:55:20.773Z,10.00
2023-04-07T15:56:24.972Z,10.00
2023-04-07T15:57:27.831Z,10.10
2023-04-07T15:58:31.645Z,10.00
2023-04-07T15:59:36.316Z,11.10
2023-04-07T16:00:39.860Z,11.90
2023-04-07T16:01:43.027Z,12.70
2023-04-07T16:02:46.046Z,11.90
2023-04-07T16:03:49.351Z,11.30
2023-04-07T16:04:52.621Z,10.60
2023-04-07T16:05:55.987Z,10.00
2023-04-07T16:06:58.928Z,14.10
2023-04-07T16:08:01.777Z,11.90
2023-04-07T16:09:04.792Z,9.40
2023-04-07T16:10:08.738Z,10.10
2023-04-07T16:11:11.620Z,10.10
2023-04-07T16:12:14.510Z,9.70
2023-04-07T16:13:18.067Z,10.70
2023-04-07T16:14:20.857Z,12.00
2023-04-07T16:15:36.842Z,10.50
2023-04-07T16:16:44.601Z,12.70
2023-04-07T16:17:48.520Z,11.00
2023-04-07T16:18:51.960Z,10.10
2023-04-07T16:19:54.754Z,8.60
2023-04-07T16:20:57.685Z,12.10
2023-04-07T16:22:00.488Z,11.80
2023-04-07T16:23:03.469Z,9.90
2023-04-07T16:24:06.345Z,12.80
2023-04-07T16:25:09.647Z,10.20
2023-04-07T16:26:12.738Z,8.70
2023-04-07T16:27:15.547Z,10.10
2023-04-07T16:28:18.390Z,10.10
2023-04-07T16:29:22.457Z,9.70
2023-04-07T16:30:25.463Z,9.40
2023-04-07T16:31:28.390Z,10.70
2023-04-07T16:32:32.566Z,9.80
2023-04-07T16:33:36.633Z,8.70
2023-04-07T16:34:39.445Z,10.00
2023-04-07T16:35:42.392Z,8.90
2023-04-07T16:36:45.699Z,12.40
2023-04-07T16:37:50.082Z,11.70
2023-04-07T16:38:53.071Z,11.60
2023-04-07T16:39:59.607Z,12.70
2023-04-07T16:41:04.711Z,12.10
2023-04-07T16:42:08.196Z,9.30
2023-04-07T16:43:11.804Z,10.80
2023-04-07T16:44:14.589Z,10.70
2023-04-07T16:45:17.533Z,10.70
2023-04-07T16:46:20.665Z,10.30
2023-04-07T16:47:24.933Z,9.30
2023-04-07T16:48:28.154Z,11.40
2023-04-07T16:49:31.078Z,10.50
2023-04-07T16:50:33.894Z,10.80
2023-04-07T16:51:36.635Z,9.20
2023-04-07T16:52:40.493Z,10.10
2023-04-07T16:53:43.502Z,11.00
2023-04-07T16:54:46.922Z,11.10
2023-04-07T16:55:49.780Z,9.20
2023-04-07T16:56:52.509Z,9.50
2023-04-07T16:57:55.708Z,10.40
2023-04-07T16:58:58.507Z,10.90
2023-04-07T17:00:01.619Z,12.10
2023-04-07T17:01:04.490Z,12.60
2023-04-07T17:02:11.925Z,14.10
2023-04-07T17:03:15.870Z,9.90
2023-04-07T17:04:19.244Z,10.00
2023-04-07T17:05:22.315Z,10.50
2023-04-07T17:06:25.148Z,10.30
2023-04-07T17:07:27.922Z,9.60
2023-04-07T17:08:32.409Z,9.30
2023-04-07T17:09:35.845Z,13.00
2023-04-07T17:10:38.673Z,9.50
2023-04-07T17:11:42.335Z,9.60
2023-04-07T17:12:46.213Z,10.10
2023-04-07T17:13:49.566Z,9.60
2023-04-07T17:14:52.873Z,12.20
2023-04-07T17:15:56.260Z,13.30
2023-04-07T17:16:59.114Z,10.70
2023-04-07T17:18:02.052Z,9.90
2023-04-07T17:19:04.924Z,10.50
2023-04-07T17:20:08.923Z,10.60
2023-04-07T17:21:12.227Z,10.60
2023-04-07T17:22:15.811Z,12.10
2023-04-07T17:23:18.679Z,12.30
2023-04-07T17:24:22.327Z,12.30
2023-04-07T17:25:25.587Z,9.80
2023-04-07T17:26:28.499Z,11.30
2023-04-07T17:27:31.427Z,10.80
2023-04-07T17:28:34.431Z,12.50
2023-04-07T17:29:37.690Z,13.60
2023-04-07T17:30:41.648Z,12.40
2023-04-07T17:31:45.268Z,11.00
2023-04-07T17:32:50.635Z,9.90
2023-04-07T17:33:53.669Z,14.20
2023-04-07T17:34:56.855Z,11.20
2023-04-07T17:36:05.807Z,11.60
2023-04-07T17:37:08.620Z,9.30
2023-04-07T17:38:11.457Z,10.40
2023-04-07T17:39:14.303Z,8.90
2023-04-07T17:40:17.688Z,9.10
2023-04-07T17:41:21.273Z,10.50
2023-04-07T17:42:24.016Z,11.30
2023-04-07T17:43:28.686Z,12.30
2023-04-07T17:44:31.753Z,14.20
2023-04-07T17:45:35.117Z,10.90
2023-04-07T17:46:38.267Z,11.40
2023-04-07T17:47:41.221Z,14.40
2023-04-07T17:48:48.121Z,15.20
2023-04-07T17:49:50.966Z,11.50
2023-04-07T17:50:53.894Z,10.90
2023-04-07T17:51:57.244Z,12.20
2023-04-07T17:53:00.948Z,12.60
2023-04-07T17:54:04.050Z,11.20
2023-04-07T17:55:08.428Z,14.30
2023-04-07T17:56:12.763Z,13.90
2023-04-07T17:57:16.135Z,16.00
2023-04-07T17:58:21.069Z,13.10
2023-04-07T17:59:24.001Z,10.60
2023-04-07T18:00:27.807Z,11.40
2023-04-07T18:01:30.931Z,11.50
2023-04-07T18:02:34.874Z,14.90
2023-04-07T18:03:38.499Z,13.50
2023-04-07T18:04:41.593Z,12.80
2023-04-07T18:05:46.546Z,12.10
2023-04-07T18:06:50.460Z,10.80
2023-04-07T18:07:54.924Z,13.60
2023-04-07T18:08:57.865Z,12.00
2023-04-07T18:10:01.408Z,14.50
2023-04-07T18:11:06.509Z,12.00
2023-04-07T18:12:10.501Z,11.80
2023-04-07T18:13:13.427Z,11.00
2023-04-07T18:14:16.692Z,9.90
2023-04-07T18:15:19.941Z,11.10
2023-04-07T18:16:23.585Z,10.00
2023-04-07T18:17:26.674Z,12.20
2023-04-07T18:18:29.960Z,16.70
2023-04-07T18:19:34.066Z,10.10
2023-04-07T18:20:38.118Z,12.30
2023-04-07T18:21:41.748Z,10.60
2023-04-07T18:22:45.945Z,10.60
2023-04-07T18:23:49.556Z,12.90
2023-04-07T18:24:53.127Z,14.30
2023-04-07T18:25:56.319Z,10.50
2023-04-07T18:26:59.983Z,10.90
2023-04-07T18:28:04.377Z,12.80
2023-04-07T18:29:10.042Z,14.60
2023-04-07T18:30:13.416Z,10.80
2023-04-07T18:31:16.628Z,11.30
2023-04-07T18:32:20.547Z,9.90
2023-04-07T18:33:24.202Z,11.90
2023-04-07T18:34:27.698Z,11.10
2023-04-07T18:35:30.803Z,12.70
2023-04-07T18:36:34.510Z,12.60
2023-04-07T18:37:37.312Z,11.40
2023-04-07T18:38:40.846Z,11.30
2023-04-07T18:39:45.020Z,12.80
2023-04-07T18:40:48.157Z,13.70
2023-04-07T18:41:51.775Z,11.70
2023-04-07T18:42:55.716Z,13.10
2023-04-07T18:43:59.671Z,13.20
2023-04-07T18:45:03.620Z,12.70
2023-04-07T18:46:07.443Z,12.50
2023-04-07T18:47:10.603Z,12.90
2023-04-07T18:48:15.488Z,13.80
2023-04-07T18:49:18.812Z,11.10
2023-04-07T18:50:22.851Z,9.70
2023-04-07T18:51:26.549Z,13.20
2023-04-07T18:52:29.847Z,14.60
2023-04-07T18:53:33.586Z,13.00
2023-04-07T18:54:37.330Z,14.00
2023-04-07T18:55:41.414Z,14.40
2023-04-07T18:56:45.336Z,14.00
2023-04-07T18:57:48.946Z,13.20
2023-04-07T18:58:52.032Z,13.90
2023-04-07T18:59:55.941Z,16.10
2023-04-07T19:00:59.886Z,10.80
2023-04-07T19:02:03.369Z,14.90
2023-04-07T19:03:07.665Z,11.30
2023-04-07T19:04:11.696Z,13.70
2023-04-07T19:05:15.563Z,12.60
2023-04-07T19:06:19.495Z,15.70
2023-04-07T19:07:23.193Z,11.60
2023-04-07T19:08:26.748Z,15.50
2023-04-07T19:09:30.414Z,15.10
2023-04-07T19:10:34.507Z,12.80
2023-04-07T19:11:37.891Z,17.10
2023-04-07T19:12:41.020Z,12.00
2023-04-07T19:13:43.930Z,13.70
2023-04-07T19:14:47.148Z,14.90
2023-04-07T19:15:50.868Z,13.60
2023-04-07T19:16:54.457Z,12.60
2023-04-07T19:17:58.952Z,12.50
2023-04-07T19:19:02.473Z,14.00
2023-04-07T19:20:06.746Z,11.10
2023-04-07T19:21:10.334Z,14.40
2023-04-07T19:22:13.324Z,15.40
2023-04-07T19:23:16.551Z,14.80
2023-04-07T19:24:19.768Z,13.60
2023-04-07T19:25:23.432Z,11.50
2023-04-07T19:26:29.617Z,14.20
2023-04-07T19:27:33.306Z,12.90
2023-04-07T19:28:36.437Z,12.60
2023-04-07T19:29:39.297Z,14.90
2023-04-07T19:30:42.220Z,18.10
2023-04-07T19:31:45.774Z,21.20
2023-04-07T19:32:49.329Z,13.60
2023-04-07T19:33:52.237Z,13.70
2023-04-07T19:34:55.341Z,17.20
2023-04-07T19:35:58.295Z,18.80
2023-04-07T19:37:01.277Z,15.30
2023-04-07T19:38:05.805Z,16.60
2023-04-07T19:39:08.841Z,17.00
2023-04-07T19:40:12.083Z,13.30
2023-04-07T19:41:14.996Z,14.80
2023-04-07T19:42:18.182Z,12.90
2023-04-07T19:43:21.555Z,16.90
2023-04-07T19:44:26.353Z,14.40
2023-04-07T19:45:29.347Z,17.60
2023-04-07T19:46:33.927Z,13.20
2023-04-07T19:47:38.895Z,19.50
2023-04-07T19:48:42.554Z,14.30
2023-04-07T19:49:46.215Z,15.00
2023-04-07T19:50:51.292Z,16.20
2023-04-07T19:51:54.642Z,14.90
2023-04-07T19:52:57.635Z,16.30
2023-04-07T19:54:00.825Z,15.50
2023-04-07T19:55:04.006Z,13.70
2023-04-07T19:56:07.204Z,14.10
2023-04-07T19:57:10.132Z,16.10
2023-04-07T19:58:13.604Z,13.30
2023-04-07T19:59:17.002Z,13.60
2023-04-07T20:00:20.104Z,15.80
2023-04-07T20:01:25.725Z,19.40
2023-04-07T20:02:29.060Z,14.00
2023-04-07T20:03:33.533Z,15.80
2023-04-07T20:04:36.817Z,14.80
2023-04-07T20:05:39.855Z,17.50
2023-04-07T20:06:42.755Z,15.80
2023-04-07T20:07:45.790Z,17.20
2023-04-07T20:08:49.504Z,14.00
2023-04-07T20:09:54.891Z,19.20
2023-04-07T20:10:57.797Z,19.20
2023-04-07T20:12:01.869Z,14.60
2023-04-07T20:13:06.307Z,17.30
2023-04-07T20:14:09.652Z,14.50
2023-04-07T20:15:12.705Z,13.20
2023-04-07T20:16:15.756Z,17.20
2023-04-07T20:17:18.603Z,14.60
2023-04-07T20:18:21.531Z,15.30
2023-04-07T20:19:24.431Z,15.40
2023-04-07T20:20:27.512Z,16.60
2023-04-07T20:21:32.412Z,16.60
2023-04-07T20:22:35.554Z,13.40
2023-04-07T20:23:38.790Z,15.00
2023-04-07T20:24:41.671Z,15.90
2023-04-07T20:25:44.603Z,18.50
2023-04-07T20:26:47.447Z,15.60
2023-04-07T20:27:50.530Z,13.30
2023-04-07T20:28:53.446Z,16.40
2023-04-07T20:29:56.595Z,16.20
2023-04-07T20:30:59.765Z,15.50
2023-04-07T20:32:02.989Z,14.80
2023-04-07T20:33:06.024Z,18.60
2023-04-07T20:34:08.918Z,19.30
2023-04-07T20:35:12.083Z,16.30
2023-04-07T20:36:15.211Z,20.10
2023-04-07T20:37:22.006Z,19.00
2023-04-07T20:38:25.261Z,18.00
2023-04-07T20:39:28.097Z,14.10
2023-04-07T20:40:34.794Z,15.70
2023-04-07T20:41:38.731Z,16.60
2023-04-07T20:42:41.635Z,14.80
2023-04-07T20:43:44.614Z,13.70
2023-04-07T20:44:50.519Z,15.60
2023-04-07T20:45:53.692Z,16.20
2023-04-07T20:46:56.774Z,18.10
2023-04-07T20:48:00.281Z,17.50
2023-04-07T20:49:04.701Z,17.00
2023-04-07T20:50:08.348Z,19.60
2023-04-07T20:51:11.498Z,16.30
2023-04-07T20:52:14.604Z,16.20
2023-04-07T20:53:18.392Z,18.40
2023-04-07T20:54:21.296Z,18.40
2023-04-07T20:55:24.247Z,16.70
2023-04-07T20:56:27.287Z,14.10
2023-04-07T20:57:30.823Z,17.50
2023-04-07T20:58:33.682Z,13.40
2023-04-07T20:59:36.572Z,14.30
2023-04-07T21:00:39.951Z,15.90
2023-04-07T21:01:43.269Z,17.80
2023-04-07T21:02:48.727Z,15.90
2023-04-07T21:03:53.011Z,13.60
2023-04-07T21:04:56.499Z,18.90
2023-04-07T21:05:59.411Z,15.00
2023-04-07T21:07:02.392Z,15.20
2023-04-07T21:08:06.362Z,17.50
2023-04-07T21:09:09.549Z,16.70
2023-04-07T21:10:14.472Z,13.30
2023-04-07T21:11:17.339Z,12.20
2023-04-07T21:12:20.627Z,13.10
2023-04-07T21:13:25.979Z,17.50
2023-04-07T21:14:29.048Z,16.20
2023-04-07T21:15:32.129Z,13.10
2023-04-07T21:16:35.389Z,14.40
2023-04-07T21:17:38.606Z,12.80
2023-04-07T21:18:41.952Z,15.60
2023-04-07T21:19:44.781Z,16.60
2023-04-07T21:20:47.773Z,17.70
2023-04-07T21:21:50.890Z,11.60
2023-04-07T21:22:53.889Z,16.00
2023-04-07T21:23:56.897Z,17.30
2023-04-07T21:24:59.815Z,17.50
2023-04-07T21:26:03.398Z,13.10
2023-04-07T21:27:06.434Z,14.70
2023-04-07T21:28:09.439Z,15.20
2023-04-07T21:29:12.542Z,15.50
2023-04-07T21:30:16.748Z,17.00
2023-04-07T21:31:24.065Z,15.70
2023-04-07T21:32:27.002Z,15.50
2023-04-07T21:33:30.302Z,14.20
2023-04-07T21:34:33.341Z,14.20
2023-04-07T21:35:36.267Z,17.10
2023-04-07T21:36:40.143Z,18.50
2023-04-07T21:37:43.120Z,19.70
2023-04-07T21:38:46.369Z,15.70
2023-04-07T21:39:52.811Z,17.10
2023-04-07T21:40:57.601Z,18.30
2023-04-07T21:42:01.562Z,18.50
2023-04-07T21:43:04.404Z,13.60
2023-04-07T21:44:09.856Z,15.80
2023-04-07T21:45:12.911Z,16.50
2023-04-07T21:46:17.701Z,19.00
2023-04-07T21:47:20.756Z,20.30
2023-04-07T21:48:23.704Z,16.80
2023-04-07T21:49:26.680Z,17.10
2023-04-07T21:50:30.173Z,20.70
2023-04-07T21:51:33.801Z,20.80
2023-04-07T21:52:36.946Z,17.00
2023-04-07T21:53:40.500Z,19.00
2023-04-07T21:54:44.355Z,17.70
2023-04-07T21:55:47.213Z,17.30
2023-04-07T21:56:51.587Z,17.60
2023-04-07T21:57:54.671Z,16.90
2023-04-07T21:58:58.157Z,17.80
2023-04-07T22:00:01.109Z,20.50
2023-04-07T22:01:04.950Z,15.60
2023-04-07T22:02:08.330Z,18.60
2023-04-07T22:03:11.513Z,16.90
2023-04-07T22:04:14.664Z,16.40
2023-04-07T22:05:17.815Z,17.50
2023-04-07T22:06:21.193Z,22.30
2023-04-07T22:07:24.197Z,16.90
2023-04-07T22:08:27.315Z,17.20
2023-04-07T22:09:30.496Z,17.00
2023-04-07T22:10:33.340Z,15.20
2023-04-07T22:11:36.185Z,20.60
2023-04-07T22:12:39.071Z,17.50
2023-04-07T22:13:41.884Z,22.10
2023-04-07T22:14:45.380Z,17.50
2023-04-07T22:15:48.299Z,16.40
2023-04-07T22:16:52.068Z,19.00
2023-04-07T22:17:56.420Z,15.70
2023-04-07T22:18:59.324Z,14.40
2023-04-07T22:20:02.134Z,16.80
2023-04-07T22:21:05.561Z,20.20
2023-04-07T22:22:08.656Z,21.00
2023-04-07T22:23:11.420Z,18.90
2023-04-07T22:24:14.277Z,17.90
2023-04-07T22:25:17.206Z,18.60
2023-04-07T22:26:20.252Z,19.00
2023-04-07T22:27:23.101Z,15.30
2023-04-07T22:28:26.092Z,17.50
2023-04-07T22:29:28.994Z,18.60
2023-04-07T22:30:31.876Z,20.10
2023-04-07T22:31:34.913Z,18.70
2023-04-07T22:32:37.876Z,19.30
2023-04-07T22:33:40.832Z,21.50
2023-04-07T22:34:44.638Z,14.90
2023-04-07T22:35:47.563Z,16.00
2023-04-07T22:36:50.416Z,20.50
2023-04-07T22:37:53.398Z,20.60
2023-04-07T22:38:56.437Z,20.10
2023-04-07T22:39:59.221Z,20.10
2023-04-07T22:41:02.115Z,18.60
2023-04-07T22:42:05.075Z,19.40
2023-04-07T22:43:07.890Z,17.90
2023-04-07T22:44:10.973Z,17.40
2023-04-07T22:45:14.006Z,19.70
2023-04-07T22:46:18.202Z,17.10
2023-04-07T22:47:22.350Z,18.30
2023-04-07T22:48:25.355Z,18.60
2023-04-07T22:49:29.409Z,18.90
2023-04-07T22:50:32.227Z,19.40
2023-04-07T22:51:36.126Z,19.10
2023-04-07T22:52:39.021Z,20.40
2023-04-07T22:53:41.974Z,20.30
2023-04-07T22:54:44.815Z,19.40
2023-04-07T22:55:47.730Z,20.80
2023-04-07T22:56:50.716Z,20.10
2023-04-07T22:57:53.592Z,21.70
2023-04-07T22:59:05.109Z,20.90
2023-04-07T23:00:08.679Z,18.20
2023-04-07T23:01:11.855Z,18.50
2023-04-07T23:02:15.040Z,19.10
2023-04-07T23:03:18.268Z,18.40
2023-04-07T23:04:21.535Z,19.30
2023-04-07T23:05:24.356Z,22.20
2023-04-07T23:06:28.666Z,21.20
2023-04-07T23:07:31.524Z,19.20
2023-04-07T23:08:34.431Z,19.50
2023-04-07T23:09:37.495Z,19.90
2023-04-07T23:10:40.434Z,22.20
2023-04-07T23:11:45.972Z,19.50
2023-04-07T23:12:51.622Z,25.00
2023-04-07T23:13:54.463Z,20.70
2023-04-07T23:14:57.429Z,21.00
2023-04-07T23:16:03.675Z,23.20
2023-04-07T23:17:06.641Z,20.70
2023-04-07T23:18:09.577Z,19.20
2023-04-07T23:19:15.594Z,21.40
2023-04-07T23:20:18.724Z,21.50
2023-04-07T23:21:21.573Z,22.50
2023-04-07T23:22:24.323Z,29.10
2023-04-07T23:23:27.190Z,32.50
2023-04-07T23:24:30.005Z,28.40
2023-04-07T23:25:32.918Z,25.70